Newville, Pennsylvania
Current Conditions -  °F | °C
As of 7:56 PM on Wednesday 22 Oct 2014 (Local Time) from KCXY Reporting Station
Overcast Overcast  
Wind Chill: 54°   Ceiling: 2800
Heat Index: 54°   Visibility: 10mi
Dew Point: 43°   Wind: 14mph
Humidity: 66%   Direction: 340°NNW
Pressure: 29.98"   Gusts: 25mph
Location:  40.17°N, 77.4°W
Report Text: KCXY 222356Z 34012G22KT 10SM OVC028 12/06 A2998 RMK AO2 SLP153 60000 T01220061 10133 20122 51004
Loading
Personal Weather Stations






























Interactive Weather Map
Tropical Storm Tracking
New forecast layout! Learn more

10-Day Weather Forecast

Advertisements
Track Severe Weather on mobile